Aviation Digital Data Service (ADDS)

Output produced by METARs form (1616 UTC 30 October 2020)
found at http://www.aviationweather.gov/metar/data/
 
METAR text: LEMG 301600Z 15005KT 100V190 CAVOK 20/12 Q1024 NOSIG
Conditions at: LEMG (MALAGA (CIV/MIL), ES) observed 1600 UTC 30 October 2020
Temperature: 20.0°C (68°F)
Dewpoint: 12.0°C (54°F) [RH = 60%]
Pressure (altimeter): 30.24 inches Hg (1024.0 mb)
Winds: from the SSE (150 degrees) at 6 MPH (5 knots; 2.6 m/s)
Visibility: 6 or more miles (10+ km)
Ceiling: ceiling and visibility are OK
Clouds: unknown
Weather: no significant weather observed at this time

METAR text: LEMG 301530Z 14006KT 110V170 CAVOK 20/12 Q1024 NOSIG
Conditions at: LEMG (MALAGA (CIV/MIL), ES) observed 1530 UTC 30 October 2020
Temperature: 20.0°C (68°F)
Dewpoint: 12.0°C (54°F) [RH = 60%]
Pressure (altimeter): 30.24 inches Hg (1024.0 mb)
Winds: from the SE (140 degrees) at 7 MPH (6 knots; 3.1 m/s)
Visibility: 6 or more miles (10+ km)
Ceiling: ceiling and visibility are OK
Clouds: unknown
Weather: no significant weather observed at this time

METAR text: LEMG 301500Z 15006KT 120V180 CAVOK 22/12 Q1024 NOSIG
Conditions at: LEMG (MALAGA (CIV/MIL), ES) observed 1500 UTC 30 October 2020
Temperature: 22.0°C (72°F)
Dewpoint: 12.0°C (54°F) [RH = 53%]
Pressure (altimeter): 30.24 inches Hg (1024.0 mb)
Winds: from the SSE (150 degrees) at 7 MPH (6 knots; 3.1 m/s)
Visibility: 6 or more miles (10+ km)
Ceiling: ceiling and visibility are OK
Clouds: unknown
Weather: no significant weather observed at this time

METAR text: LEMG 301430Z 15007KT 110V190 CAVOK 21/12 Q1024 NOSIG
Conditions at: LEMG (MALAGA (CIV/MIL), ES) observed 1430 UTC 30 October 2020
Temperature: 21.0°C (70°F)
Dewpoint: 12.0°C (54°F) [RH = 56%]
Pressure (altimeter): 30.24 inches Hg (1024.0 mb)
Winds: from the SSE (150 degrees) at 8 MPH (7 knots; 3.6 m/s)
Visibility: 6 or more miles (10+ km)
Ceiling: ceiling and visibility are OK
Clouds: unknown
Weather: no significant weather observed at this time

METAR text: LEMG 301400Z 15007KT 110V190 CAVOK 22/12 Q1024 NOSIG
Conditions at: LEMG (MALAGA (CIV/MIL), ES) observed 1400 UTC 30 October 2020
Temperature: 22.0°C (72°F)
Dewpoint: 12.0°C (54°F) [RH = 53%]
Pressure (altimeter): 30.24 inches Hg (1024.0 mb)
Winds: from the SSE (150 degrees) at 8 MPH (7 knots; 3.6 m/s)
Visibility: 6 or more miles (10+ km)
Ceiling: ceiling and visibility are OK
Clouds: unknown
Weather: no significant weather observed at this time

METAR text: LEMG 301330Z 13007KT 070V190 CAVOK 22/12 Q1024 NOSIG
Conditions at: LEMG (MALAGA (CIV/MIL), ES) observed 1330 UTC 30 October 2020
Temperature: 22.0°C (72°F)
Dewpoint: 12.0°C (54°F) [RH = 53%]
Pressure (altimeter): 30.24 inches Hg (1024.0 mb)
Winds: from the SE (130 degrees) at 8 MPH (7 knots; 3.6 m/s)
Visibility: 6 or more miles (10+ km)
Ceiling: ceiling and visibility are OK
Clouds: unknown
Weather: no significant weather observed at this time

METAR text: LEMG 301300Z 14007KT 110V180 CAVOK 22/12 Q1024 NOSIG
Conditions at: LEMG (MALAGA (CIV/MIL), ES) observed 1300 UTC 30 October 2020
Temperature: 22.0°C (72°F)
Dewpoint: 12.0°C (54°F) [RH = 53%]
Pressure (altimeter): 30.24 inches Hg (1024.0 mb)
Winds: from the SE (140 degrees) at 8 MPH (7 knots; 3.6 m/s)
Visibility: 6 or more miles (10+ km)
Ceiling: ceiling and visibility are OK
Clouds: unknown
Weather: no significant weather observed at this time

METAR text: LEMG 301230Z 14007KT 110V180 CAVOK 22/12 Q1025 NOSIG
Conditions at: LEMG (MALAGA (CIV/MIL), ES) observed 1230 UTC 30 October 2020
Temperature: 22.0°C (72°F)
Dewpoint: 12.0°C (54°F) [RH = 53%]
Pressure (altimeter): 30.27 inches Hg (1025.0 mb)
Winds: from the SE (140 degrees) at 8 MPH (7 knots; 3.6 m/s)
Visibility: 6 or more miles (10+ km)
Ceiling: ceiling and visibility are OK
Clouds: unknown
Weather: no significant weather observed at this time

METAR text: LEMG 301200Z 14007KT 090V190 CAVOK 22/13 Q1025 NOSIG
Conditions at: LEMG (MALAGA (CIV/MIL), ES) observed 1200 UTC 30 October 2020
Temperature: 22.0°C (72°F)
Dewpoint: 13.0°C (55°F) [RH = 57%]
Pressure (altimeter): 30.27 inches Hg (1025.0 mb)
Winds: from the SE (140 degrees) at 8 MPH (7 knots; 3.6 m/s)
Visibility: 6 or more miles (10+ km)
Ceiling: ceiling and visibility are OK
Clouds: unknown
Weather: no significant weather observed at this time

METAR text: LEMG 301130Z 15006KT 120V220 CAVOK 22/12 Q1025 NOSIG
Conditions at: LEMG (MALAGA (CIV/MIL), ES) observed 1130 UTC 30 October 2020
Temperature: 22.0°C (72°F)
Dewpoint: 12.0°C (54°F) [RH = 53%]
Pressure (altimeter): 30.27 inches Hg (1025.0 mb)
Winds: from the SSE (150 degrees) at 7 MPH (6 knots; 3.1 m/s)
Visibility: 6 or more miles (10+ km)
Ceiling: ceiling and visibility are OK
Clouds: unknown
Weather: no significant weather observed at this time

METAR text: LEMG 301100Z 14005KT 090V170 CAVOK 22/13 Q1026 NOSIG
Conditions at: LEMG (MALAGA (CIV/MIL), ES) observed 1100 UTC 30 October 2020
Temperature: 22.0°C (72°F)
Dewpoint: 13.0°C (55°F) [RH = 57%]
Pressure (altimeter): 30.30 inches Hg (1026.0 mb)
Winds: from the SE (140 degrees) at 6 MPH (5 knots; 2.6 m/s)
Visibility: 6 or more miles (10+ km)
Ceiling: ceiling and visibility are OK
Clouds: unknown
Weather: no significant weather observed at this time

METAR text: LEMG 301030Z 14004KT 060V200 CAVOK 22/13 Q1026 NOSIG
Conditions at: LEMG (MALAGA (CIV/MIL), ES) observed 1030 UTC 30 October 2020
Temperature: 22.0°C (72°F)
Dewpoint: 13.0°C (55°F) [RH = 57%]
Pressure (altimeter): 30.30 inches Hg (1026.0 mb)
Winds: from the SE (140 degrees) at 5 MPH (4 knots; 2.1 m/s)
Visibility: 6 or more miles (10+ km)
Ceiling: ceiling and visibility are OK
Clouds: unknown
Weather: no significant weather observed at this time

METAR text: LEMG 301000Z VRB02KT CAVOK 20/11 Q1026 BECMG 15006KT
Conditions at: LEMG (MALAGA (CIV/MIL), ES) observed 1000 UTC 30 October 2020
Temperature: 20.0°C (68°F)
Dewpoint: 11.0°C (52°F) [RH = 56%]
Pressure (altimeter): 30.30 inches Hg (1026.0 mb)
Winds: variable direction winds at 2 MPH (2 knots; 1.0 m/s)
Visibility: 6 or more miles (10+ km)
Ceiling: ceiling and visibility are OK
Clouds: unknown
Weather: no significant weather observed at this time

METAR text: LEMG 300930Z 29005KT CAVOK 19/10 Q1026 BECMG 15006KT
Conditions at: LEMG (MALAGA (CIV/MIL), ES) observed 0930 UTC 30 October 2020
Temperature: 19.0°C (66°F)
Dewpoint: 10.0°C (50°F) [RH = 56%]
Pressure (altimeter): 30.30 inches Hg (1026.0 mb)
Winds: from the WNW (290 degrees) at 6 MPH (5 knots; 2.6 m/s)
Visibility: 6 or more miles (10+ km)
Ceiling: ceiling and visibility are OK
Clouds: unknown
Weather: no significant weather observed at this time

METAR text: LEMG 300900Z 28007KT CAVOK 17/10 Q1026 BECMG 15006KT
Conditions at: LEMG (MALAGA (CIV/MIL), ES) observed 0900 UTC 30 October 2020
Temperature: 17.0°C (63°F)
Dewpoint: 10.0°C (50°F) [RH = 63%]
Pressure (altimeter): 30.30 inches Hg (1026.0 mb)
Winds: from the W (280 degrees) at 8 MPH (7 knots; 3.6 m/s)
Visibility: 6 or more miles (10+ km)
Ceiling: ceiling and visibility are OK
Clouds: unknown
Weather: no significant weather observed at this time

METAR text: LEMG 300830Z 29006KT CAVOK 16/09 Q1026 NOSIG
Conditions at: LEMG (MALAGA (CIV/MIL), ES) observed 0830 UTC 30 October 2020
Temperature: 16.0°C (61°F)
Dewpoint: 9.0°C (48°F) [RH = 63%]
Pressure (altimeter): 30.30 inches Hg (1026.0 mb)
Winds: from the WNW (290 degrees) at 7 MPH (6 knots; 3.1 m/s)
Visibility: 6 or more miles (10+ km)
Ceiling: ceiling and visibility are OK
Clouds: unknown
Weather: no significant weather observed at this time

METAR text: LEMG 300800Z 29006KT CAVOK 13/09 Q1026 NOSIG
Conditions at: LEMG (MALAGA (CIV/MIL), ES) observed 0800 UTC 30 October 2020
Temperature: 13.0°C (55°F)
Dewpoint: 9.0°C (48°F) [RH = 77%]
Pressure (altimeter): 30.30 inches Hg (1026.0 mb)
Winds: from the WNW (290 degrees) at 7 MPH (6 knots; 3.1 m/s)
Visibility: 6 or more miles (10+ km)
Ceiling: ceiling and visibility are OK
Clouds: unknown
Weather: no significant weather observed at this time

METAR text: LEMG 300730Z 27008KT CAVOK 13/09 Q1026 NOSIG
Conditions at: LEMG (MALAGA (CIV/MIL), ES) observed 0730 UTC 30 October 2020
Temperature: 13.0°C (55°F)
Dewpoint: 9.0°C (48°F) [RH = 77%]
Pressure (altimeter): 30.30 inches Hg (1026.0 mb)
Winds: from the W (270 degrees) at 9 MPH (8 knots; 4.1 m/s)
Visibility: 6 or more miles (10+ km)
Ceiling: ceiling and visibility are OK
Clouds: unknown
Weather: no significant weather observed at this time

METAR text: LEMG 300700Z 29007KT CAVOK 11/08 Q1025 NOSIG
Conditions at: LEMG (MALAGA (CIV/MIL), ES) observed 0700 UTC 30 October 2020
Temperature: 11.0°C (52°F)
Dewpoint: 8.0°C (46°F) [RH = 82%]
Pressure (altimeter): 30.27 inches Hg (1025.0 mb)
Winds: from the WNW (290 degrees) at 8 MPH (7 knots; 3.6 m/s)
Visibility: 6 or more miles (10+ km)
Ceiling: ceiling and visibility are OK
Clouds: unknown
Weather: no significant weather observed at this time

METAR text: LEMG 300630Z 29009KT CAVOK 13/09 Q1025 NOSIG
Conditions at: LEMG (MALAGA (CIV/MIL), ES) observed 0630 UTC 30 October 2020
Temperature: 13.0°C (55°F)
Dewpoint: 9.0°C (48°F) [RH = 77%]
Pressure (altimeter): 30.27 inches Hg (1025.0 mb)
Winds: from the WNW (290 degrees) at 10 MPH (9 knots; 4.6 m/s)
Visibility: 6 or more miles (10+ km)
Ceiling: ceiling and visibility are OK
Clouds: unknown
Weather: no significant weather observed at this time

METAR text: LEMG 300600Z 28008KT CAVOK 12/08 Q1025 NOSIG
Conditions at: LEMG (MALAGA (CIV/MIL), ES) observed 0600 UTC 30 October 2020
Temperature: 12.0°C (54°F)
Dewpoint: 8.0°C (46°F) [RH = 76%]
Pressure (altimeter): 30.27 inches Hg (1025.0 mb)
Winds: from the W (280 degrees) at 9 MPH (8 knots; 4.1 m/s)
Visibility: 6 or more miles (10+ km)
Ceiling: ceiling and visibility are OK
Clouds: unknown
Weather: no significant weather observed at this time

METAR text: LEMG 300530Z 28009KT CAVOK 12/09 Q1025 NOSIG
Conditions at: LEMG (MALAGA (CIV/MIL), ES) observed 0530 UTC 30 October 2020
Temperature: 12.0°C (54°F)
Dewpoint: 9.0°C (48°F) [RH = 82%]
Pressure (altimeter): 30.27 inches Hg (1025.0 mb)
Winds: from the W (280 degrees) at 10 MPH (9 knots; 4.6 m/s)
Visibility: 6 or more miles (10+ km)
Ceiling: ceiling and visibility are OK
Clouds: unknown
Weather: no significant weather observed at this time

METAR text: LEMG 300500Z 29010KT CAVOK 12/09 Q1025 NOSIG
Conditions at: LEMG (MALAGA (CIV/MIL), ES) observed 0500 UTC 30 October 2020
Temperature: 12.0°C (54°F)
Dewpoint: 9.0°C (48°F) [RH = 82%]
Pressure (altimeter): 30.27 inches Hg (1025.0 mb)
Winds: from the WNW (290 degrees) at 12 MPH (10 knots; 5.1 m/s)
Visibility: 6 or more miles (10+ km)
Ceiling: ceiling and visibility are OK
Clouds: unknown
Weather: no significant weather observed at this time

METAR text: LEMG 300430Z 30008KT CAVOK 11/08 Q1025 NOSIG
Conditions at: LEMG (MALAGA (CIV/MIL), ES) observed 0430 UTC 30 October 2020
Temperature: 11.0°C (52°F)
Dewpoint: 8.0°C (46°F) [RH = 82%]
Pressure (altimeter): 30.27 inches Hg (1025.0 mb)
Winds: from the WNW (300 degrees) at 9 MPH (8 knots; 4.1 m/s)
Visibility: 6 or more miles (10+ km)
Ceiling: ceiling and visibility are OK
Clouds: unknown
Weather: no significant weather observed at this time

METAR text: LEMG 300400Z 29009KT CAVOK 12/08 Q1025 NOSIG
Conditions at: LEMG (MALAGA (CIV/MIL), ES) observed 0400 UTC 30 October 2020
Temperature: 12.0°C (54°F)
Dewpoint: 8.0°C (46°F) [RH = 76%]
Pressure (altimeter): 30.27 inches Hg (1025.0 mb)
Winds: from the WNW (290 degrees) at 10 MPH (9 knots; 4.6 m/s)
Visibility: 6 or more miles (10+ km)
Ceiling: ceiling and visibility are OK
Clouds: unknown
Weather: no significant weather observed at this time

METAR text: LEMG 300330Z 28008KT CAVOK 12/08 Q1025 NOSIG
Conditions at: LEMG (MALAGA (CIV/MIL), ES) observed 0330 UTC 30 October 2020
Temperature: 12.0°C (54°F)
Dewpoint: 8.0°C (46°F) [RH = 76%]
Pressure (altimeter): 30.27 inches Hg (1025.0 mb)
Winds: from the W (280 degrees) at 9 MPH (8 knots; 4.1 m/s)
Visibility: 6 or more miles (10+ km)
Ceiling: ceiling and visibility are OK
Clouds: unknown
Weather: no significant weather observed at this time

METAR text: LEMG 300300Z 30006KT CAVOK 12/08 Q1025 NOSIG
Conditions at: LEMG (MALAGA (CIV/MIL), ES) observed 0300 UTC 30 October 2020
Temperature: 12.0°C (54°F)
Dewpoint: 8.0°C (46°F) [RH = 76%]
Pressure (altimeter): 30.27 inches Hg (1025.0 mb)
Winds: from the WNW (300 degrees) at 7 MPH (6 knots; 3.1 m/s)
Visibility: 6 or more miles (10+ km)
Ceiling: ceiling and visibility are OK
Clouds: unknown
Weather: no significant weather observed at this time

METAR text: LEMG 300230Z 29006KT CAVOK 12/08 Q1025 NOSIG
Conditions at: LEMG (MALAGA (CIV/MIL), ES) observed 0230 UTC 30 October 2020
Temperature: 12.0°C (54°F)
Dewpoint: 8.0°C (46°F) [RH = 76%]
Pressure (altimeter): 30.27 inches Hg (1025.0 mb)
Winds: from the WNW (290 degrees) at 7 MPH (6 knots; 3.1 m/s)
Visibility: 6 or more miles (10+ km)
Ceiling: ceiling and visibility are OK
Clouds: unknown
Weather: no significant weather observed at this time

METAR text: LEMG 300200Z 29006KT CAVOK 14/08 Q1025 NOSIG
Conditions at: LEMG (MALAGA (CIV/MIL), ES) observed 0200 UTC 30 October 2020
Temperature: 14.0°C (57°F)
Dewpoint: 8.0°C (46°F) [RH = 67%]
Pressure (altimeter): 30.27 inches Hg (1025.0 mb)
Winds: from the WNW (290 degrees) at 7 MPH (6 knots; 3.1 m/s)
Visibility: 6 or more miles (10+ km)
Ceiling: ceiling and visibility are OK
Clouds: unknown
Weather: no significant weather observed at this time

METAR text: LEMG 300130Z 28007KT CAVOK 14/08 Q1025 NOSIG
Conditions at: LEMG (MALAGA (CIV/MIL), ES) observed 0130 UTC 30 October 2020
Temperature: 14.0°C (57°F)
Dewpoint: 8.0°C (46°F) [RH = 67%]
Pressure (altimeter): 30.27 inches Hg (1025.0 mb)
Winds: from the W (280 degrees) at 8 MPH (7 knots; 3.6 m/s)
Visibility: 6 or more miles (10+ km)
Ceiling: ceiling and visibility are OK
Clouds: unknown
Weather: no significant weather observed at this time

METAR text: LEMG 300100Z 29007KT CAVOK 14/08 Q1025 NOSIG
Conditions at: LEMG (MALAGA (CIV/MIL), ES) observed 0100 UTC 30 October 2020
Temperature: 14.0°C (57°F)
Dewpoint: 8.0°C (46°F) [RH = 67%]
Pressure (altimeter): 30.27 inches Hg (1025.0 mb)
Winds: from the WNW (290 degrees) at 8 MPH (7 knots; 3.6 m/s)
Visibility: 6 or more miles (10+ km)
Ceiling: ceiling and visibility are OK
Clouds: unknown
Weather: no significant weather observed at this time

METAR text: LEMG 300030Z 28008KT CAVOK 14/08 Q1025 NOSIG
Conditions at: LEMG (MALAGA (CIV/MIL), ES) observed 0030 UTC 30 October 2020
Temperature: 14.0°C (57°F)
Dewpoint: 8.0°C (46°F) [RH = 67%]
Pressure (altimeter): 30.27 inches Hg (1025.0 mb)
Winds: from the W (280 degrees) at 9 MPH (8 knots; 4.1 m/s)
Visibility: 6 or more miles (10+ km)
Ceiling: ceiling and visibility are OK
Clouds: unknown
Weather: no significant weather observed at this time

METAR text: LEMG 300000Z 28007KT CAVOK 14/08 Q1025 NOSIG
Conditions at: LEMG (MALAGA (CIV/MIL), ES) observed 0000 UTC 30 October 2020
Temperature: 14.0°C (57°F)
Dewpoint: 8.0°C (46°F) [RH = 67%]
Pressure (altimeter): 30.27 inches Hg (1025.0 mb)
Winds: from the W (280 degrees) at 8 MPH (7 knots; 3.6 m/s)
Visibility: 6 or more miles (10+ km)
Ceiling: ceiling and visibility are OK
Clouds: unknown
Weather: no significant weather observed at this time

METAR text: LEMG 292330Z 28006KT CAVOK 14/08 Q1026 NOSIG
Conditions at: LEMG (MALAGA (CIV/MIL), ES) observed 2330 UTC 29 October 2020
Temperature: 14.0°C (57°F)
Dewpoint: 8.0°C (46°F) [RH = 67%]
Pressure (altimeter): 30.30 inches Hg (1026.0 mb)
Winds: from the W (280 degrees) at 7 MPH (6 knots; 3.1 m/s)
Visibility: 6 or more miles (10+ km)
Ceiling: ceiling and visibility are OK
Clouds: unknown
Weather: no significant weather observed at this time

METAR text: LEMG 292300Z 28006KT CAVOK 14/08 Q1025 NOSIG
Conditions at: LEMG (MALAGA (CIV/MIL), ES) observed 2300 UTC 29 October 2020
Temperature: 14.0°C (57°F)
Dewpoint: 8.0°C (46°F) [RH = 67%]
Pressure (altimeter): 30.27 inches Hg (1025.0 mb)
Winds: from the W (280 degrees) at 7 MPH (6 knots; 3.1 m/s)
Visibility: 6 or more miles (10+ km)
Ceiling: ceiling and visibility are OK
Clouds: unknown
Weather: no significant weather observed at this time

METAR text: LEMG 292230Z 28006KT CAVOK 16/09 Q1026 NOSIG
Conditions at: LEMG (MALAGA (CIV/MIL), ES) observed 2230 UTC 29 October 2020
Temperature: 16.0°C (61°F)
Dewpoint: 9.0°C (48°F) [RH = 63%]
Pressure (altimeter): 30.30 inches Hg (1026.0 mb)
Winds: from the W (280 degrees) at 7 MPH (6 knots; 3.1 m/s)
Visibility: 6 or more miles (10+ km)
Ceiling: ceiling and visibility are OK
Clouds: unknown
Weather: no significant weather observed at this time

METAR text: LEMG 292200Z 28006KT CAVOK 16/08 Q1026 NOSIG
Conditions at: LEMG (MALAGA (CIV/MIL), ES) observed 2200 UTC 29 October 2020
Temperature: 16.0°C (61°F)
Dewpoint: 8.0°C (46°F) [RH = 59%]
Pressure (altimeter): 30.30 inches Hg (1026.0 mb)
Winds: from the W (280 degrees) at 7 MPH (6 knots; 3.1 m/s)
Visibility: 6 or more miles (10+ km)
Ceiling: ceiling and visibility are OK
Clouds: unknown
Weather: no significant weather observed at this time

METAR text: LEMG 292130Z 28006KT CAVOK 16/09 Q1025 NOSIG
Conditions at: LEMG (MALAGA (CIV/MIL), ES) observed 2130 UTC 29 October 2020
Temperature: 16.0°C (61°F)
Dewpoint: 9.0°C (48°F) [RH = 63%]
Pressure (altimeter): 30.27 inches Hg (1025.0 mb)
Winds: from the W (280 degrees) at 7 MPH (6 knots; 3.1 m/s)
Visibility: 6 or more miles (10+ km)
Ceiling: ceiling and visibility are OK
Clouds: unknown
Weather: no significant weather observed at this time

METAR text: LEMG 292100Z 29006KT CAVOK 15/08 Q1025 NOSIG
Conditions at: LEMG (MALAGA (CIV/MIL), ES) observed 2100 UTC 29 October 2020
Temperature: 15.0°C (59°F)
Dewpoint: 8.0°C (46°F) [RH = 63%]
Pressure (altimeter): 30.27 inches Hg (1025.0 mb)
Winds: from the WNW (290 degrees) at 7 MPH (6 knots; 3.1 m/s)
Visibility: 6 or more miles (10+ km)
Ceiling: ceiling and visibility are OK
Clouds: unknown
Weather: no significant weather observed at this time

METAR text: LEMG 292030Z 28004KT CAVOK 15/08 Q1025 NOSIG
Conditions at: LEMG (MALAGA (CIV/MIL), ES) observed 2030 UTC 29 October 2020
Temperature: 15.0°C (59°F)
Dewpoint: 8.0°C (46°F) [RH = 63%]
Pressure (altimeter): 30.27 inches Hg (1025.0 mb)
Winds: from the W (280 degrees) at 5 MPH (4 knots; 2.1 m/s)
Visibility: 6 or more miles (10+ km)
Ceiling: ceiling and visibility are OK
Clouds: unknown
Weather: no significant weather observed at this time

METAR text: LEMG 292000Z VRB02KT CAVOK 15/08 Q1025 NOSIG
Conditions at: LEMG (MALAGA (CIV/MIL), ES) observed 2000 UTC 29 October 2020
Temperature: 15.0°C (59°F)
Dewpoint: 8.0°C (46°F) [RH = 63%]
Pressure (altimeter): 30.27 inches Hg (1025.0 mb)
Winds: variable direction winds at 2 MPH (2 knots; 1.0 m/s)
Visibility: 6 or more miles (10+ km)
Ceiling: ceiling and visibility are OK
Clouds: unknown
Weather: no significant weather observed at this time

METAR text: LEMG 291930Z 00000KT CAVOK 18/08 Q1025 NOSIG
Conditions at: LEMG (MALAGA (CIV/MIL), ES) observed 1930 UTC 29 October 2020
Temperature: 18.0°C (64°F)
Dewpoint: 8.0°C (46°F) [RH = 52%]
Pressure (altimeter): 30.27 inches Hg (1025.0 mb)
Winds: calm
Visibility: 6 or more miles (10+ km)
Ceiling: ceiling and visibility are OK
Clouds: unknown
Weather: no significant weather observed at this time

METAR text: LEMG 291900Z VRB01KT CAVOK 18/09 Q1025 NOSIG
Conditions at: LEMG (MALAGA (CIV/MIL), ES) observed 1900 UTC 29 October 2020
Temperature: 18.0°C (64°F)
Dewpoint: 9.0°C (48°F) [RH = 56%]
Pressure (altimeter): 30.27 inches Hg (1025.0 mb)
Winds: variable direction winds at 1 MPH (1 knots; 0.5 m/s)
Visibility: 6 or more miles (10+ km)
Ceiling: ceiling and visibility are OK
Clouds: unknown
Weather: no significant weather observed at this time

METAR text: LEMG 291830Z VRB02KT CAVOK 18/08 Q1025 NOSIG
Conditions at: LEMG (MALAGA (CIV/MIL), ES) observed 1830 UTC 29 October 2020
Temperature: 18.0°C (64°F)
Dewpoint: 8.0°C (46°F) [RH = 52%]
Pressure (altimeter): 30.27 inches Hg (1025.0 mb)
Winds: variable direction winds at 2 MPH (2 knots; 1.0 m/s)
Visibility: 6 or more miles (10+ km)
Ceiling: ceiling and visibility are OK
Clouds: unknown
Weather: no significant weather observed at this time

METAR text: LEMG 291800Z 17002KT CAVOK 19/07 Q1025 NOSIG
Conditions at: LEMG (MALAGA (CIV/MIL), ES) observed 1800 UTC 29 October 2020
Temperature: 19.0°C (66°F)
Dewpoint: 7.0°C (45°F) [RH = 46%]
Pressure (altimeter): 30.27 inches Hg (1025.0 mb)
Winds: from the S (170 degrees) at 2 MPH (2 knots; 1.0 m/s)
Visibility: 6 or more miles (10+ km)
Ceiling: ceiling and visibility are OK
Clouds: unknown
Weather: no significant weather observed at this time

METAR text: LEMG 291730Z VRB02KT CAVOK 19/07 Q1024 NOSIG
Conditions at: LEMG (MALAGA (CIV/MIL), ES) observed 1730 UTC 29 October 2020
Temperature: 19.0°C (66°F)
Dewpoint: 7.0°C (45°F) [RH = 46%]
Pressure (altimeter): 30.24 inches Hg (1024.0 mb)
Winds: variable direction winds at 2 MPH (2 knots; 1.0 m/s)
Visibility: 6 or more miles (10+ km)
Ceiling: ceiling and visibility are OK
Clouds: unknown
Weather: no significant weather observed at this time

METAR text: LEMG 291700Z 13003KT 080V190 CAVOK 21/07 Q1024 NOSIG
Conditions at: LEMG (MALAGA (CIV/MIL), ES) observed 1700 UTC 29 October 2020
Temperature: 21.0°C (70°F)
Dewpoint: 7.0°C (45°F) [RH = 40%]
Pressure (altimeter): 30.24 inches Hg (1024.0 mb)
Winds: from the SE (130 degrees) at 3 MPH (3 knots; 1.5 m/s)
Visibility: 6 or more miles (10+ km)
Ceiling: ceiling and visibility are OK
Clouds: unknown
Weather: no significant weather observed at this time

METAR text: LEMG 291630Z 11004KT 060V140 CAVOK 21/05 Q1024 NOSIG
Conditions at: LEMG (MALAGA (CIV/MIL), ES) observed 1630 UTC 29 October 2020
Temperature: 21.0°C (70°F)
Dewpoint: 5.0°C (41°F) [RH = 35%]
Pressure (altimeter): 30.24 inches Hg (1024.0 mb)
Winds: from the ESE (110 degrees) at 5 MPH (4 knots; 2.1 m/s)
Visibility: 6 or more miles (10+ km)
Ceiling: ceiling and visibility are OK
Clouds: unknown
Weather: no significant weather observed at this time

METAR text: LEMG 291600Z 11003KT 050V160 CAVOK 22/05 Q1024 NOSIG
Conditions at: LEMG (MALAGA (CIV/MIL), ES) observed 1600 UTC 29 October 2020
Temperature: 22.0°C (72°F)
Dewpoint: 5.0°C (41°F) [RH = 33%]
Pressure (altimeter): 30.24 inches Hg (1024.0 mb)
Winds: from the ESE (110 degrees) at 3 MPH (3 knots; 1.5 m/s)
Visibility: 6 or more miles (10+ km)
Ceiling: ceiling and visibility are OK
Clouds: unknown
Weather: no significant weather observed at this time

METAR text: LEMG 291530Z 12004KT 080V160 CAVOK 22/04 Q1024 NOSIG
Conditions at: LEMG (MALAGA (CIV/MIL), ES) observed 1530 UTC 29 October 2020
Temperature: 22.0°C (72°F)
Dewpoint: 4.0°C (39°F) [RH = 31%]
Pressure (altimeter): 30.24 inches Hg (1024.0 mb)
Winds: from the ESE (120 degrees) at 5 MPH (4 knots; 2.1 m/s)
Visibility: 6 or more miles (10+ km)
Ceiling: ceiling and visibility are OK
Clouds: unknown
Weather: no significant weather observed at this time

METAR text: LEMG 291500Z 12005KT 030V170 CAVOK 22/04 Q1024 NOSIG
Conditions at: LEMG (MALAGA (CIV/MIL), ES) observed 1500 UTC 29 October 2020
Temperature: 22.0°C (72°F)
Dewpoint: 4.0°C (39°F) [RH = 31%]
Pressure (altimeter): 30.24 inches Hg (1024.0 mb)
Winds: from the ESE (120 degrees) at 6 MPH (5 knots; 2.6 m/s)
Visibility: 6 or more miles (10+ km)
Ceiling: ceiling and visibility are OK
Clouds: unknown
Weather: no significant weather observed at this time

METAR text: LEMG 291430Z 13005KT 090V160 CAVOK 21/06 Q1024 NOSIG
Conditions at: LEMG (MALAGA (CIV/MIL), ES) observed 1430 UTC 29 October 2020
Temperature: 21.0°C (70°F)
Dewpoint: 6.0°C (43°F) [RH = 38%]
Pressure (altimeter): 30.24 inches Hg (1024.0 mb)
Winds: from the SE (130 degrees) at 6 MPH (5 knots; 2.6 m/s)
Visibility: 6 or more miles (10+ km)
Ceiling: ceiling and visibility are OK
Clouds: unknown
Weather: no significant weather observed at this time

METAR text: LEMG 291400Z 12005KT 080V150 CAVOK 22/06 Q1024 NOSIG
Conditions at: LEMG (MALAGA (CIV/MIL), ES) observed 1400 UTC 29 October 2020
Temperature: 22.0°C (72°F)
Dewpoint: 6.0°C (43°F) [RH = 35%]
Pressure (altimeter): 30.24 inches Hg (1024.0 mb)
Winds: from the ESE (120 degrees) at 6 MPH (5 knots; 2.6 m/s)
Visibility: 6 or more miles (10+ km)
Ceiling: ceiling and visibility are OK
Clouds: unknown
Weather: no significant weather observed at this time

METAR text: LEMG 291330Z 11005KT 070V150 CAVOK 22/07 Q1024 NOSIG
Conditions at: LEMG (MALAGA (CIV/MIL), ES) observed 1330 UTC 29 October 2020
Temperature: 22.0°C (72°F)
Dewpoint: 7.0°C (45°F) [RH = 38%]
Pressure (altimeter): 30.24 inches Hg (1024.0 mb)
Winds: from the ESE (110 degrees) at 6 MPH (5 knots; 2.6 m/s)
Visibility: 6 or more miles (10+ km)
Ceiling: ceiling and visibility are OK
Clouds: unknown
Weather: no significant weather observed at this time

METAR text: LEMG 291300Z 12004KT 080V160 CAVOK 22/08 Q1025 NOSIG
Conditions at: LEMG (MALAGA (CIV/MIL), ES) observed 1300 UTC 29 October 2020
Temperature: 22.0°C (72°F)
Dewpoint: 8.0°C (46°F) [RH = 41%]
Pressure (altimeter): 30.27 inches Hg (1025.0 mb)
Winds: from the ESE (120 degrees) at 5 MPH (4 knots; 2.1 m/s)
Visibility: 6 or more miles (10+ km)
Ceiling: ceiling and visibility are OK
Clouds: unknown
Weather: no significant weather observed at this time

METAR text: LEMG 291230Z 13005KT 080V160 CAVOK 21/08 Q1025 NOSIG
Conditions at: LEMG (MALAGA (CIV/MIL), ES) observed 1230 UTC 29 October 2020
Temperature: 21.0°C (70°F)
Dewpoint: 8.0°C (46°F) [RH = 43%]
Pressure (altimeter): 30.27 inches Hg (1025.0 mb)
Winds: from the SE (130 degrees) at 6 MPH (5 knots; 2.6 m/s)
Visibility: 6 or more miles (10+ km)
Ceiling: ceiling and visibility are OK
Clouds: unknown
Weather: no significant weather observed at this time

METAR text: LEMG 291200Z 12005KT 090V150 CAVOK 20/10 Q1026 NOSIG
Conditions at: LEMG (MALAGA (CIV/MIL), ES) observed 1200 UTC 29 October 2020
Temperature: 20.0°C (68°F)
Dewpoint: 10.0°C (50°F) [RH = 53%]
Pressure (altimeter): 30.30 inches Hg (1026.0 mb)
Winds: from the ESE (120 degrees) at 6 MPH (5 knots; 2.6 m/s)
Visibility: 6 or more miles (10+ km)
Ceiling: ceiling and visibility are OK
Clouds: unknown
Weather: no significant weather observed at this time

METAR text: LEMG 291130Z 12005KT 060V180 CAVOK 21/09 Q1026 NOSIG
Conditions at: LEMG (MALAGA (CIV/MIL), ES) observed 1130 UTC 29 October 2020
Temperature: 21.0°C (70°F)
Dewpoint: 9.0°C (48°F) [RH = 46%]
Pressure (altimeter): 30.30 inches Hg (1026.0 mb)
Winds: from the ESE (120 degrees) at 6 MPH (5 knots; 2.6 m/s)
Visibility: 6 or more miles (10+ km)
Ceiling: ceiling and visibility are OK
Clouds: unknown
Weather: no significant weather observed at this time

METAR text: LEMG 291100Z 12005KT 070V160 CAVOK 21/09 Q1026 NOSIG
Conditions at: LEMG (MALAGA (CIV/MIL), ES) observed 1100 UTC 29 October 2020
Temperature: 21.0°C (70°F)
Dewpoint: 9.0°C (48°F) [RH = 46%]
Pressure (altimeter): 30.30 inches Hg (1026.0 mb)
Winds: from the ESE (120 degrees) at 6 MPH (5 knots; 2.6 m/s)
Visibility: 6 or more miles (10+ km)
Ceiling: ceiling and visibility are OK
Clouds: unknown
Weather: no significant weather observed at this time

METAR text: LEMG 291030Z 11005KT 050V150 CAVOK 21/09 Q1026 NOSIG
Conditions at: LEMG (MALAGA (CIV/MIL), ES) observed 1030 UTC 29 October 2020
Temperature: 21.0°C (70°F)
Dewpoint: 9.0°C (48°F) [RH = 46%]
Pressure (altimeter): 30.30 inches Hg (1026.0 mb)
Winds: from the ESE (110 degrees) at 6 MPH (5 knots; 2.6 m/s)
Visibility: 6 or more miles (10+ km)
Ceiling: ceiling and visibility are OK
Clouds: unknown
Weather: no significant weather observed at this time

METAR text: LEMG 291000Z 34003KT 260V030 CAVOK 20/12 Q1026 BECMG 12006KT
Conditions at: LEMG (MALAGA (CIV/MIL), ES) observed 1000 UTC 29 October 2020
Temperature: 20.0°C (68°F)
Dewpoint: 12.0°C (54°F) [RH = 60%]
Pressure (altimeter): 30.30 inches Hg (1026.0 mb)
Winds: from the NNW (340 degrees) at 3 MPH (3 knots; 1.5 m/s)
Visibility: 6 or more miles (10+ km)
Ceiling: ceiling and visibility are OK
Clouds: unknown
Weather: no significant weather observed at this time

METAR text: LEMG 290930Z 31003KT 280V350 9999 FEW018 18/12 Q1026 BECMG 12006KT
Conditions at: LEMG (MALAGA (CIV/MIL), ES) observed 0930 UTC 29 October 2020
Temperature: 18.0°C (64°F)
Dewpoint: 12.0°C (54°F) [RH = 68%]
Pressure (altimeter): 30.30 inches Hg (1026.0 mb)
Winds: from the NW (310 degrees) at 3 MPH (3 knots; 1.5 m/s)
Visibility: 6 or more miles (10+ km)
Ceiling: at least 12,000 feet AGL
Clouds: few clouds at 1800 feet AGL
Weather: no significant weather observed at this time

METAR text: LEMG 290900Z 30007KT 9999 FEW018 16/11 Q1026 NOSIG
Conditions at: LEMG (MALAGA (CIV/MIL), ES) observed 0900 UTC 29 October 2020
Temperature: 16.0°C (61°F)
Dewpoint: 11.0°C (52°F) [RH = 72%]
Pressure (altimeter): 30.30 inches Hg (1026.0 mb)
Winds: from the WNW (300 degrees) at 8 MPH (7 knots; 3.6 m/s)
Visibility: 6 or more miles (10+ km)
Ceiling: at least 12,000 feet AGL
Clouds: few clouds at 1800 feet AGL
Weather: no significant weather observed at this time

METAR text: LEMG 290830Z 29007KT 250V320 CAVOK 15/11 Q1025 NOSIG
Conditions at: LEMG (MALAGA (CIV/MIL), ES) observed 0830 UTC 29 October 2020
Temperature: 15.0°C (59°F)
Dewpoint: 11.0°C (52°F) [RH = 77%]
Pressure (altimeter): 30.27 inches Hg (1025.0 mb)
Winds: from the WNW (290 degrees) at 8 MPH (7 knots; 3.6 m/s)
Visibility: 6 or more miles (10+ km)
Ceiling: ceiling and visibility are OK
Clouds: unknown
Weather: no significant weather observed at this time

METAR text: LEMG 290800Z 30007KT CAVOK 13/10 Q1025 NOSIG
Conditions at: LEMG (MALAGA (CIV/MIL), ES) observed 0800 UTC 29 October 2020
Temperature: 13.0°C (55°F)
Dewpoint: 10.0°C (50°F) [RH = 82%]
Pressure (altimeter): 30.27 inches Hg (1025.0 mb)
Winds: from the WNW (300 degrees) at 8 MPH (7 knots; 3.6 m/s)
Visibility: 6 or more miles (10+ km)
Ceiling: ceiling and visibility are OK
Clouds: unknown
Weather: no significant weather observed at this time

METAR text: LEMG 290730Z 30007KT CAVOK 12/09 Q1025 NOSIG
Conditions at: LEMG (MALAGA (CIV/MIL), ES) observed 0730 UTC 29 October 2020
Temperature: 12.0°C (54°F)
Dewpoint: 9.0°C (48°F) [RH = 82%]
Pressure (altimeter): 30.27 inches Hg (1025.0 mb)
Winds: from the WNW (300 degrees) at 8 MPH (7 knots; 3.6 m/s)
Visibility: 6 or more miles (10+ km)
Ceiling: ceiling and visibility are OK
Clouds: unknown
Weather: no significant weather observed at this time

METAR text: LEMG 290700Z 28008KT CAVOK 11/09 Q1024 NOSIG
Conditions at: LEMG (MALAGA (CIV/MIL), ES) observed 0700 UTC 29 October 2020
Temperature: 11.0°C (52°F)
Dewpoint: 9.0°C (48°F) [RH = 87%]
Pressure (altimeter): 30.24 inches Hg (1024.0 mb)
Winds: from the W (280 degrees) at 9 MPH (8 knots; 4.1 m/s)
Visibility: 6 or more miles (10+ km)
Ceiling: ceiling and visibility are OK
Clouds: unknown
Weather: no significant weather observed at this time

METAR text: LEMG 290630Z 29006KT CAVOK 11/09 Q1024 NOSIG
Conditions at: LEMG (MALAGA (CIV/MIL), ES) observed 0630 UTC 29 October 2020
Temperature: 11.0°C (52°F)
Dewpoint: 9.0°C (48°F) [RH = 87%]
Pressure (altimeter): 30.24 inches Hg (1024.0 mb)
Winds: from the WNW (290 degrees) at 7 MPH (6 knots; 3.1 m/s)
Visibility: 6 or more miles (10+ km)
Ceiling: ceiling and visibility are OK
Clouds: unknown
Weather: no significant weather observed at this time

METAR text: LEMG 290600Z 28008KT CAVOK 12/09 Q1024 NOSIG
Conditions at: LEMG (MALAGA (CIV/MIL), ES) observed 0600 UTC 29 October 2020
Temperature: 12.0°C (54°F)
Dewpoint: 9.0°C (48°F) [RH = 82%]
Pressure (altimeter): 30.24 inches Hg (1024.0 mb)
Winds: from the W (280 degrees) at 9 MPH (8 knots; 4.1 m/s)
Visibility: 6 or more miles (10+ km)
Ceiling: ceiling and visibility are OK
Clouds: unknown
Weather: no significant weather observed at this time

METAR text: LEMG 290530Z 29008KT CAVOK 12/10 Q1024 NOSIG
Conditions at: LEMG (MALAGA (CIV/MIL), ES) observed 0530 UTC 29 October 2020
Temperature: 12.0°C (54°F)
Dewpoint: 10.0°C (50°F) [RH = 88%]
Pressure (altimeter): 30.24 inches Hg (1024.0 mb)
Winds: from the WNW (290 degrees) at 9 MPH (8 knots; 4.1 m/s)
Visibility: 6 or more miles (10+ km)
Ceiling: ceiling and visibility are OK
Clouds: unknown
Weather: no significant weather observed at this time

METAR text: LEMG 290500Z 29007KT CAVOK 11/10 Q1023 NOSIG
Conditions at: LEMG (MALAGA (CIV/MIL), ES) observed 0500 UTC 29 October 2020
Temperature: 11.0°C (52°F)
Dewpoint: 10.0°C (50°F) [RH = 94%]
Pressure (altimeter): 30.21 inches Hg (1023.0 mb)
Winds: from the WNW (290 degrees) at 8 MPH (7 knots; 3.6 m/s)
Visibility: 6 or more miles (10+ km)
Ceiling: ceiling and visibility are OK
Clouds: unknown
Weather: no significant weather observed at this time

METAR text: LEMG 290430Z 29007KT CAVOK 11/09 Q1023 NOSIG
Conditions at: LEMG (MALAGA (CIV/MIL), ES) observed 0430 UTC 29 October 2020
Temperature: 11.0°C (52°F)
Dewpoint: 9.0°C (48°F) [RH = 87%]
Pressure (altimeter): 30.21 inches Hg (1023.0 mb)
Winds: from the WNW (290 degrees) at 8 MPH (7 knots; 3.6 m/s)
Visibility: 6 or more miles (10+ km)
Ceiling: ceiling and visibility are OK
Clouds: unknown
Weather: no significant weather observed at this time

Forecast for: LEMG (MALAGA (CIV/MIL), ES)
Text: TAF LEMG 301100Z 3012/3112 14006KT 9999 FEW025 TX23/3012Z TN11/3106Z
Forecast period: 1200 to 1800 UTC 30 October 2020
Forecast type: FROM: standard forecast or significant change
Winds: from the SE (140 degrees) at 7 MPH (6 knots; 3.1 m/s)
Visibility: 6 or more miles (10+ km)
Ceiling: at least 12,000 feet AGL
Clouds: few clouds at 2500 feet AGL
Weather: no significant weather forecast for this period
Text: BECMG 3018/3021 29006KT
Forecast period: 1800 UTC 30 October 2020 to 1000 UTC 31 October 2020
Forecast type: BECOMING: Conditions expected to become as follows by 2100 UTC 30 October 2020
Winds: from the WNW (290 degrees) at 7 MPH (6 knots; 3.1 m/s)
Visibility: 6 or more miles (10+ km)
Ceiling: at least 12,000 feet AGL
Clouds: few clouds at 2500 feet AGL
Weather: no significant weather forecast for this period
Text: BECMG 3110/3112 15008KT
Forecast period: 1000 to 1200 UTC 31 October 2020
Forecast type: BECOMING: Conditions expected to become as follows by 1200 UTC 31 October 2020
Winds: from the SSE (150 degrees) at 9 MPH (8 knots; 4.1 m/s)
Visibility: 6 or more miles (10+ km)
Ceiling: at least 12,000 feet AGL
Clouds: few clouds at 2500 feet AGL
Weather: no significant weather forecast for this period